createdAt,value
2022-10-06T00:00:13.907Z,4.40
2022-10-06T00:02:17.237Z,4.27
2022-10-06T00:04:19.170Z,4.10
2022-10-06T00:06:21.134Z,4.27
2022-10-06T00:08:23.187Z,5.13
2022-10-06T00:10:25.355Z,4.67
2022-10-06T00:12:27.384Z,4.40
2022-10-06T00:14:29.347Z,4.47
2022-10-06T00:16:31.238Z,4.20
2022-10-06T00:18:33.193Z,4.13
2022-10-06T00:20:35.116Z,4.50
2022-10-06T00:22:39.171Z,4.77
2022-10-06T00:24:41.111Z,4.47
2022-10-06T00:26:43.069Z,4.77
2022-10-06T00:28:48.436Z,3.83
2022-10-06T00:30:53.494Z,4.60
2022-10-06T00:32:58.596Z,4.27
2022-10-06T00:35:00.616Z,4.70
2022-10-06T00:37:03.914Z,4.23
2022-10-06T00:39:05.847Z,3.87
2022-10-06T00:41:07.874Z,4.23
2022-10-06T00:43:48.961Z,3.70
2022-10-06T00:45:51.422Z,4.73
2022-10-06T00:47:55.287Z,4.17
2022-10-06T00:49:58.888Z,3.87
2022-10-06T00:52:04.855Z,4.27
2022-10-06T00:54:07.369Z,4.23
2022-10-06T00:56:09.376Z,3.67
2022-10-06T00:58:11.388Z,3.90
2022-10-06T01:00:14.219Z,4.50
2022-10-06T01:02:23.284Z,3.63
2022-10-06T01:04:26.014Z,4.10
2022-10-06T01:06:28.031Z,3.37
2022-10-06T01:08:31.519Z,3.57
2022-10-06T01:10:33.803Z,4.10
2022-10-06T01:12:35.926Z,4.00
2022-10-06T01:14:39.282Z,3.63
2022-10-06T01:16:42.854Z,3.83
2022-10-06T01:18:47.254Z,3.53
2022-10-06T01:20:53.270Z,3.43
2022-10-06T01:22:58.350Z,3.80
2022-10-06T01:25:01.427Z,3.50
2022-10-06T01:27:04.250Z,3.60
2022-10-06T01:29:06.257Z,3.27
2022-10-06T01:31:08.691Z,3.60
2022-10-06T01:33:10.669Z,3.80
2022-10-06T01:35:13.174Z,3.20
2022-10-06T01:37:15.541Z,3.60
2022-10-06T01:39:17.557Z,3.70
2022-10-06T01:41:19.758Z,3.47
2022-10-06T01:43:22.227Z,3.27
2022-10-06T01:45:24.197Z,3.33
2022-10-06T01:47:26.894Z,3.30
2022-10-06T01:49:28.906Z,3.47
2022-10-06T01:51:30.919Z,3.50
2022-10-06T01:53:33.706Z,3.80
2022-10-06T01:55:36.201Z,3.53
2022-10-06T01:57:41.602Z,3.47
2022-10-06T01:59:44.383Z,3.20
2022-10-06T02:01:46.413Z,3.50
2022-10-06T02:03:48.883Z,3.10
2022-10-06T02:05:50.835Z,3.47
2022-10-06T02:07:52.800Z,3.50
2022-10-06T02:09:54.991Z,3.00
2022-10-06T02:11:57.172Z,3.67
2022-10-06T02:14:01.521Z,3.30
2022-10-06T02:16:06.692Z,3.13
2022-10-06T02:18:09.168Z,3.40
2022-10-06T02:20:11.407Z,3.20
2022-10-06T02:22:13.513Z,3.13
2022-10-06T02:24:15.933Z,2.50
2022-10-06T02:26:18.936Z,2.80
2022-10-06T02:28:22.688Z,3.30
2022-10-06T02:30:24.861Z,3.03
2022-10-06T02:32:39.141Z,3.30
2022-10-06T02:34:42.310Z,3.10
2022-10-06T02:36:44.215Z,2.93
2022-10-06T02:38:46.208Z,2.73
2022-10-06T02:40:48.218Z,3.03
2022-10-06T02:42:50.373Z,3.00
2022-10-06T02:44:55.383Z,3.00
2022-10-06T02:46:57.393Z,3.20
2022-10-06T02:48:59.433Z,2.80
2022-10-06T02:51:09.656Z,3.10
2022-10-06T02:53:12.436Z,3.60
2022-10-06T02:55:14.426Z,3.00
2022-10-06T02:57:16.471Z,3.40
2022-10-06T02:59:18.426Z,3.10
2022-10-06T03:01:25.745Z,3.20
2022-10-06T03:03:30.926Z,3.50
2022-10-06T03:05:32.866Z,3.50
2022-10-06T03:07:34.896Z,3.53
2022-10-06T03:09:36.872Z,2.70
2022-10-06T03:11:40.783Z,2.70
2022-10-06T03:13:44.022Z,3.03
2022-10-06T03:15:46.062Z,3.13
2022-10-06T03:17:51.105Z,2.00
2022-10-06T03:19:54.190Z,1.80
2022-10-06T03:21:56.211Z,1.73
2022-10-06T03:24:07.041Z,1.40
2022-10-06T03:26:09.130Z,1.40
2022-10-06T03:28:11.114Z,1.30
2022-10-06T03:30:13.602Z,1.27
2022-10-06T03:32:15.672Z,1.23
2022-10-06T03:34:18.513Z,1.20
2022-10-06T03:36:22.475Z,1.70
2022-10-06T03:38:24.584Z,1.67
2022-10-06T03:40:26.517Z,1.20
2022-10-06T03:42:28.931Z,1.20
2022-10-06T03:44:34.898Z,1.30
2022-10-06T03:46:37.454Z,1.40
2022-10-06T03:48:42.414Z,0.80
2022-10-06T03:50:45.923Z,1.00
2022-10-06T03:52:51.385Z,1.10
2022-10-06T03:54:53.905Z,1.20
2022-10-06T03:56:56.260Z,1.00
2022-10-06T03:59:00.213Z,1.70
2022-10-06T04:01:04.388Z,0.90
2022-10-06T04:03:06.623Z,0.80
2022-10-06T04:05:09.322Z,1.00
2022-10-06T04:07:11.297Z,0.90
2022-10-06T04:09:15.880Z,1.00
2022-10-06T04:11:28.447Z,1.10
2022-10-06T04:13:30.542Z,0.93
2022-10-06T04:15:32.595Z,0.87
2022-10-06T04:17:34.608Z,1.20
2022-10-06T04:19:36.607Z,0.80
2022-10-06T04:21:40.741Z,0.90
2022-10-06T04:23:45.216Z,2.13
2022-10-06T04:25:50.475Z,1.40
2022-10-06T04:27:57.495Z,1.30
2022-10-06T04:29:59.639Z,1.00
2022-10-06T04:32:01.862Z,1.00
2022-10-06T04:34:13.423Z,1.00
2022-10-06T04:36:24.218Z,0.90
2022-10-06T04:38:29.765Z,1.00
2022-10-06T04:40:32.099Z,1.00
2022-10-06T04:42:35.200Z,0.90
2022-10-06T04:44:39.215Z,1.20
2022-10-06T04:46:43.754Z,1.00
2022-10-06T04:48:47.522Z,1.10
2022-10-06T04:51:00.259Z,1.17
2022-10-06T04:53:02.361Z,1.10
2022-10-06T04:55:04.972Z,1.10
2022-10-06T04:57:06.956Z,1.20
2022-10-06T04:59:09.248Z,1.70
2022-10-06T05:01:39.672Z,1.53
2022-10-06T05:03:46.615Z,1.33
2022-10-06T05:05:48.606Z,1.40
2022-10-06T05:07:50.627Z,1.23
2022-10-06T05:09:52.906Z,1.43
2022-10-06T05:11:55.108Z,1.40
2022-10-06T05:13:58.705Z,1.07
2022-10-06T05:16:04.000Z,1.20
2022-10-06T05:18:07.672Z,1.27
2022-10-06T05:20:11.084Z,1.20
2022-10-06T05:22:13.496Z,1.50
2022-10-06T05:24:15.705Z,1.07
2022-10-06T05:26:20.905Z,1.47
2022-10-06T05:28:27.299Z,1.40
2022-10-06T05:30:29.588Z,1.23
2022-10-06T05:32:35.887Z,1.40
2022-10-06T05:34:38.393Z,1.97
2022-10-06T05:36:41.302Z,1.57
2022-10-06T05:38:45.953Z,1.37
2022-10-06T05:40:48.404Z,1.20
2022-10-06T05:42:50.818Z,1.33
2022-10-06T05:44:52.797Z,1.47
2022-10-06T05:46:54.864Z,1.50
2022-10-06T05:48:59.014Z,1.80
2022-10-06T05:51:07.960Z,1.60
2022-10-06T05:53:12.163Z,2.30
2022-10-06T05:55:14.322Z,1.73
2022-10-06T05:57:16.341Z,2.20
2022-10-06T05:59:19.188Z,1.47
2022-10-06T06:01:32.697Z,1.80
2022-10-06T06:03:34.952Z,1.90
2022-10-06T06:05:41.726Z,1.47
2022-10-06T06:07:44.094Z,1.53
2022-10-06T06:09:46.503Z,1.30
2022-10-06T06:11:50.234Z,1.30
2022-10-06T06:13:58.876Z,1.90
2022-10-06T06:16:04.286Z,1.13
2022-10-06T06:18:07.949Z,1.43
2022-10-06T06:20:11.309Z,1.67
2022-10-06T06:22:13.613Z,1.40
2022-10-06T06:24:18.170Z,1.97
2022-10-06T06:26:28.238Z,1.47
2022-10-06T06:28:31.158Z,1.70
2022-10-06T06:30:33.840Z,1.80
2022-10-06T06:32:35.982Z,1.63
2022-10-06T06:34:38.453Z,1.80
2022-10-06T06:36:45.865Z,1.87
2022-10-06T06:38:52.666Z,1.20
2022-10-06T06:40:55.832Z,1.67
2022-10-06T06:42:57.844Z,1.63
2022-10-06T06:45:14.764Z,1.63
2022-10-06T06:47:40.146Z,1.40
2022-10-06T06:49:43.112Z,1.40
2022-10-06T06:51:54.294Z,1.73
2022-10-06T06:54:00.867Z,1.40
2022-10-06T06:56:04.072Z,1.50
2022-10-06T06:58:07.945Z,1.40
2022-10-06T07:00:10.393Z,1.37
2022-10-06T07:02:14.095Z,2.00
2022-10-06T07:04:19.218Z,1.70
2022-10-06T07:06:27.106Z,2.10
2022-10-06T07:08:32.378Z,1.67
2022-10-06T07:10:36.272Z,1.70
2022-10-06T07:12:38.978Z,2.03
2022-10-06T07:15:00.892Z,1.33
2022-10-06T07:17:23.627Z,1.83
2022-10-06T07:19:44.646Z,1.73
2022-10-06T07:22:17.889Z,1.87
2022-10-06T07:24:40.355Z,1.80
2022-10-06T07:26:42.452Z,1.50
2022-10-06T07:28:44.395Z,1.47
2022-10-06T07:30:48.521Z,1.50
2022-10-06T07:32:54.999Z,1.70
2022-10-06T07:35:03.082Z,1.50
2022-10-06T07:37:06.525Z,1.70
2022-10-06T07:39:10.475Z,1.50
2022-10-06T07:41:20.772Z,1.50
2022-10-06T07:43:29.868Z,1.63
2022-10-06T07:45:41.745Z,1.70
2022-10-06T07:47:58.429Z,1.50
2022-10-06T07:50:00.888Z,1.80
2022-10-06T07:52:02.872Z,1.40
2022-10-06T07:54:05.014Z,2.03
2022-10-06T07:56:26.854Z,1.57
2022-10-06T07:58:32.810Z,1.77
2022-10-06T08:00:34.842Z,1.90
2022-10-06T08:02:36.847Z,1.77
2022-10-06T08:04:38.759Z,1.70
2022-10-06T08:06:41.972Z,1.40
2022-10-06T08:08:48.051Z,2.00
2022-10-06T08:10:55.212Z,1.50
2022-10-06T08:12:57.248Z,1.60
2022-10-06T08:15:06.976Z,1.90
2022-10-06T08:17:09.806Z,1.80
2022-10-06T08:19:11.816Z,1.50
2022-10-06T08:21:24.683Z,2.10
2022-10-06T08:23:26.654Z,1.90
2022-10-06T08:25:28.816Z,1.90
2022-10-06T08:27:31.147Z,1.77
2022-10-06T08:29:33.143Z,1.80
2022-10-06T08:31:35.153Z,1.60
2022-10-06T08:33:38.577Z,1.60
2022-10-06T08:35:40.554Z,1.80
2022-10-06T08:37:42.988Z,2.00
2022-10-06T08:39:44.963Z,2.07
2022-10-06T08:41:51.888Z,1.60
2022-10-06T08:44:04.336Z,2.10
2022-10-06T08:46:06.475Z,1.70
2022-10-06T08:48:13.996Z,1.90
2022-10-06T08:50:16.094Z,2.00
2022-10-06T08:52:46.852Z,1.90
2022-10-06T08:54:58.347Z,1.80
2022-10-06T08:57:37.361Z,2.10
2022-10-06T08:59:40.345Z,2.60
2022-10-06T09:01:47.921Z,1.80
2022-10-06T09:03:52.337Z,2.27
2022-10-06T09:05:58.687Z,1.70
2022-10-06T09:08:18.987Z,1.27
2022-10-06T09:10:41.378Z,2.00
2022-10-06T09:13:08.604Z,1.60
2022-10-06T09:15:42.659Z,2.27
2022-10-06T09:17:56.683Z,2.40
2022-10-06T09:20:02.450Z,4.63
2022-10-06T09:22:05.330Z,3.20
2022-10-06T09:24:30.213Z,2.27
2022-10-06T09:26:32.935Z,1.33
2022-10-06T09:28:34.987Z,1.67
2022-10-06T09:30:37.511Z,1.67
2022-10-06T09:32:46.653Z,2.93
2022-10-06T09:34:51.927Z,1.90
2022-10-06T09:37:09.220Z,1.50
2022-10-06T09:39:22.272Z,1.60
2022-10-06T09:41:29.437Z,1.70
2022-10-06T09:43:31.779Z,1.90
2022-10-06T09:45:33.776Z,1.63
2022-10-06T09:47:41.181Z,2.00
2022-10-06T09:49:44.070Z,2.00
2022-10-06T09:51:59.110Z,1.53
2022-10-06T09:54:11.019Z,1.73
2022-10-06T09:56:21.398Z,1.57
2022-10-06T09:58:29.665Z,1.27
2022-10-06T10:00:35.885Z,1.63
2022-10-06T10:02:39.550Z,1.70
2022-10-06T10:04:41.708Z,1.77
2022-10-06T10:06:43.993Z,1.50
2022-10-06T10:08:46.223Z,1.70
2022-10-06T10:10:50.094Z,1.73
2022-10-06T10:12:56.493Z,1.37
2022-10-06T10:15:24.367Z,1.70
2022-10-06T10:17:29.286Z,1.97
2022-10-06T10:19:36.435Z,1.30
2022-10-06T10:21:38.332Z,1.30
2022-10-06T10:23:55.340Z,2.07
2022-10-06T10:26:17.447Z,1.60
2022-10-06T10:28:44.133Z,1.70
2022-10-06T10:31:14.123Z,1.70
2022-10-06T10:33:32.261Z,1.60
2022-10-06T10:35:38.776Z,1.60
2022-10-06T10:37:47.452Z,1.87
2022-10-06T10:39:56.775Z,1.67
2022-10-06T10:42:02.548Z,1.30
2022-10-06T10:44:11.139Z,1.57
2022-10-06T10:46:21.457Z,1.50
2022-10-06T10:48:28.253Z,1.60
2022-10-06T10:50:53.209Z,2.03
2022-10-06T10:53:02.802Z,1.50
2022-10-06T10:55:27.105Z,1.53
2022-10-06T10:57:37.152Z,1.47
2022-10-06T10:59:52.679Z,1.40
2022-10-06T11:02:00.970Z,1.37
2022-10-06T11:04:03.140Z,1.43
2022-10-06T11:06:19.147Z,1.53
2022-10-06T11:08:27.436Z,1.83
2022-10-06T11:10:38.584Z,1.50
2022-10-06T11:12:55.944Z,1.30
2022-10-06T11:15:03.475Z,1.97
2022-10-06T11:17:15.995Z,1.70
2022-10-06T11:19:41.839Z,1.70
2022-10-06T11:22:06.876Z,1.87
2022-10-06T11:24:23.865Z,1.50
2022-10-06T11:26:41.059Z,1.23
2022-10-06T11:29:04.776Z,1.63
2022-10-06T11:31:21.809Z,1.30
2022-10-06T11:33:41.737Z,1.20
2022-10-06T11:35:45.286Z,1.33
2022-10-06T11:38:01.734Z,1.70
2022-10-06T11:40:06.150Z,1.93
2022-10-06T11:42:20.530Z,1.60
2022-10-06T11:44:35.218Z,1.67
2022-10-06T11:46:44.771Z,1.80
2022-10-06T11:48:48.102Z,1.70
2022-10-06T11:50:53.107Z,1.80
2022-10-06T11:52:55.831Z,1.57
2022-10-06T11:55:09.150Z,1.47
2022-10-06T11:57:29.354Z,1.40
2022-10-06T11:59:32.461Z,1.30
2022-10-06T12:01:50.291Z,1.73
2022-10-06T12:04:05.391Z,1.87
2022-10-06T12:06:07.311Z,1.40
2022-10-06T12:08:09.223Z,1.70
2022-10-06T12:10:29.418Z,1.33
2022-10-06T12:12:32.064Z,1.70
2022-10-06T12:17:40.273Z,1.77
2022-10-06T12:20:13.104Z,1.40
2022-10-06T12:22:23.003Z,1.40
2022-10-06T12:24:34.198Z,1.67
2022-10-06T12:26:42.187Z,1.63
2022-10-06T12:28:54.375Z,1.80
2022-10-06T12:31:24.061Z,1.40
2022-10-06T12:33:39.818Z,1.40
2022-10-06T12:35:41.888Z,1.30
2022-10-06T12:37:53.019Z,1.80
2022-10-06T12:40:33.463Z,2.00
2022-10-06T12:42:35.426Z,1.77
2022-10-06T12:44:49.181Z,1.43
2022-10-06T12:46:51.668Z,1.30
2022-10-06T12:49:12.403Z,1.80
2022-10-06T12:54:10.166Z,1.40
2022-10-06T12:56:28.968Z,1.40
2022-10-06T12:58:33.373Z,1.83
2022-10-06T13:00:42.438Z,1.80
2022-10-06T13:02:44.704Z,1.67
2022-10-06T13:05:10.227Z,1.57
2022-10-06T13:07:21.096Z,1.60
2022-10-06T13:09:23.115Z,1.50
2022-10-06T13:11:26.801Z,1.70
2022-10-06T13:13:28.821Z,1.90
2022-10-06T13:17:59.007Z,1.30
2022-10-06T13:20:01.599Z,1.40
2022-10-06T13:22:03.920Z,1.23
2022-10-06T13:24:06.197Z,1.77
2022-10-06T13:26:18.856Z,1.60
2022-10-06T13:28:23.611Z,2.73
2022-10-06T13:30:25.694Z,1.70
2022-10-06T13:32:27.651Z,2.73
2022-10-06T13:34:34.816Z,1.63
2022-10-06T13:36:45.354Z,1.67
2022-10-06T13:38:47.471Z,1.40
2022-10-06T13:41:11.205Z,1.50
2022-10-06T13:43:17.051Z,1.60
2022-10-06T13:45:19.050Z,1.60
2022-10-06T13:47:25.690Z,1.30
2022-10-06T13:49:49.052Z,1.60
2022-10-06T13:51:53.547Z,1.57
2022-10-06T13:54:01.171Z,1.50
2022-10-06T13:56:03.248Z,1.87
2022-10-06T13:58:09.357Z,2.20
2022-10-06T14:00:14.320Z,2.07
2022-10-06T14:02:19.260Z,1.70
2022-10-06T14:04:22.599Z,1.60
2022-10-06T14:06:26.319Z,1.47
2022-10-06T14:08:28.296Z,1.20
2022-10-06T14:10:55.045Z,1.77
2022-10-06T14:12:59.367Z,2.33
2022-10-06T14:15:03.086Z,1.73
2022-10-06T14:17:05.201Z,1.20
2022-10-06T14:19:07.195Z,1.67
2022-10-06T14:21:34.755Z,2.03
2022-10-06T14:23:41.377Z,1.30
2022-10-06T14:25:43.336Z,2.10
2022-10-06T14:27:45.639Z,1.33
2022-10-06T14:29:47.615Z,1.60
2022-10-06T14:31:49.634Z,1.63
2022-10-06T14:33:53.097Z,1.60
2022-10-06T14:35:55.323Z,1.50
2022-10-06T14:37:57.282Z,1.40
2022-10-06T14:39:59.428Z,1.57
2022-10-06T14:42:01.554Z,1.73
2022-10-06T14:44:09.915Z,2.37
2022-10-06T14:46:11.995Z,1.63
2022-10-06T14:48:16.966Z,1.73
2022-10-06T14:50:18.907Z,3.77
2022-10-06T14:52:22.278Z,2.60
2022-10-06T14:54:24.375Z,1.30
2022-10-06T14:56:30.131Z,1.53
2022-10-06T14:58:33.059Z,2.00
2022-10-06T15:00:35.116Z,7.73
2022-10-06T15:02:37.502Z,3.10
2022-10-06T15:04:39.507Z,61.23
2022-10-06T15:07:00.287Z,4.37
2022-10-06T15:09:02.226Z,3.43
2022-10-06T15:11:04.171Z,1.63
2022-10-06T15:13:08.422Z,1.97
2022-10-06T15:15:10.562Z,1.77
2022-10-06T15:17:12.945Z,1.53
2022-10-06T15:19:15.603Z,1.60
2022-10-06T15:21:21.724Z,1.90
2022-10-06T15:23:24.073Z,1.67
2022-10-06T15:25:44.501Z,1.77
2022-10-06T15:28:05.483Z,1.70
2022-10-06T15:30:08.060Z,1.70
2022-10-06T15:32:15.666Z,5.70
2022-10-06T15:34:19.635Z,6.20
2022-10-06T15:36:24.135Z,2.50
2022-10-06T15:38:26.632Z,2.83
2022-10-06T15:40:29.045Z,2.90
2022-10-06T15:42:37.247Z,4.47
2022-10-06T15:44:39.329Z,4.73
2022-10-06T15:46:49.794Z,2.20
2022-10-06T15:48:53.435Z,2.30
2022-10-06T15:50:55.438Z,2.17
2022-10-06T15:52:57.491Z,2.63
2022-10-06T15:55:00.068Z,2.10
2022-10-06T15:57:02.941Z,2.50
2022-10-06T15:59:08.127Z,3.60
2022-10-06T16:01:35.583Z,3.23
2022-10-06T16:03:41.306Z,3.03
2022-10-06T16:05:51.783Z,3.93
2022-10-06T16:07:53.711Z,8.50
2022-10-06T16:09:55.635Z,11.20
2022-10-06T16:11:58.655Z,16.43
2022-10-06T16:14:00.677Z,23.10
2022-10-06T16:16:02.640Z,20.63
2022-10-06T16:18:04.718Z,11.73
2022-10-06T16:22:50.991Z,33.72
2022-10-06T16:24:53.025Z,83.80
2022-10-06T16:26:57.900Z,92.30
2022-10-06T16:29:00.380Z,90.87
2022-10-06T16:31:03.294Z,58.93
2022-10-06T16:33:05.293Z,35.20
2022-10-06T16:35:07.661Z,14.50
2022-10-06T16:37:09.587Z,16.97
2022-10-06T16:39:14.534Z,6.67
2022-10-06T16:41:17.134Z,6.40
2022-10-06T16:43:19.226Z,3.77
2022-10-06T16:45:21.177Z,3.97
2022-10-06T16:47:23.229Z,8.57
2022-10-06T16:49:25.833Z,10.40
2022-10-06T16:51:35.670Z,9.83
2022-10-06T16:53:39.824Z,6.57
2022-10-06T16:55:41.890Z,3.97
2022-10-06T16:57:43.870Z,3.43
2022-10-06T16:59:47.085Z,2.90
2022-10-06T17:01:50.234Z,3.20
2022-10-06T17:04:03.494Z,2.70
2022-10-06T17:06:15.007Z,2.80
2022-10-06T17:08:16.921Z,2.87
2022-10-06T17:10:21.220Z,3.30
2022-10-06T17:12:23.492Z,2.73
2022-10-06T17:14:26.207Z,2.57
2022-10-06T17:16:30.684Z,2.73
2022-10-06T17:18:33.341Z,3.30
2022-10-06T17:20:35.302Z,3.07
2022-10-06T17:22:37.508Z,2.97
2022-10-06T17:24:39.698Z,2.90
2022-10-06T17:26:43.172Z,2.77
2022-10-06T17:28:46.939Z,3.33
2022-10-06T17:30:52.807Z,2.77
2022-10-06T17:32:55.083Z,2.87
2022-10-06T17:34:57.080Z,2.80
2022-10-06T17:36:59.355Z,2.83
2022-10-06T17:39:02.826Z,2.90
2022-10-06T17:41:07.725Z,2.80
2022-10-06T17:43:09.661Z,3.77
2022-10-06T17:45:11.614Z,3.27
2022-10-06T17:47:13.546Z,3.20
2022-10-06T17:49:17.172Z,3.97
2022-10-06T17:51:21.237Z,3.53
2022-10-06T17:53:23.320Z,3.10
2022-10-06T17:55:28.057Z,4.40
2022-10-06T17:57:30.475Z,7.30
2022-10-06T17:59:33.815Z,5.50
2022-10-06T18:01:36.550Z,6.63
2022-10-06T18:03:41.028Z,7.20
2022-10-06T18:05:42.994Z,7.43
2022-10-06T18:07:45.019Z,8.40
2022-10-06T18:10:06.980Z,6.07
2022-10-06T18:12:10.420Z,7.00
2022-10-06T18:14:13.758Z,6.70
2022-10-06T18:16:18.420Z,5.80
2022-10-06T18:18:25.290Z,6.77
2022-10-06T18:20:30.107Z,6.23
2022-10-06T18:22:32.031Z,5.60
2022-10-06T18:24:34.038Z,5.90
2022-10-06T18:26:37.484Z,6.07
2022-10-06T18:28:39.879Z,5.77
2022-10-06T18:30:41.865Z,6.63
2022-10-06T18:37:28.464Z,6.47
2022-10-06T18:39:31.983Z,7.13
2022-10-06T18:41:34.521Z,6.77
2022-10-06T18:43:37.157Z,6.00
2022-10-06T18:45:57.606Z,6.70
2022-10-06T18:48:17.984Z,7.50
2022-10-06T18:50:19.944Z,5.37
2022-10-06T18:52:22.658Z,5.40
2022-10-06T18:54:27.066Z,5.00
2022-10-06T18:56:31.583Z,5.30
2022-10-06T18:58:40.692Z,5.47
2022-10-06T19:00:42.688Z,7.00
2022-10-06T19:02:48.300Z,6.40
2022-10-06T19:04:50.642Z,6.67
2022-10-06T19:06:53.947Z,6.33
2022-10-06T19:09:00.873Z,6.47
2022-10-06T19:11:25.658Z,6.10
2022-10-06T19:13:27.702Z,6.53
2022-10-06T19:15:29.636Z,6.23
2022-10-06T19:17:32.068Z,5.83
2022-10-06T19:19:34.124Z,5.50
2022-10-06T19:21:59.517Z,5.90
2022-10-06T19:24:01.753Z,6.00
2022-10-06T19:26:06.013Z,6.30
2022-10-06T19:28:08.160Z,5.53
2022-10-06T19:30:10.227Z,5.20
2022-10-06T19:32:17.420Z,5.23
2022-10-06T19:34:20.240Z,5.33
2022-10-06T19:36:22.352Z,5.10
2022-10-06T19:38:24.754Z,4.50
2022-10-06T19:40:27.419Z,5.30
2022-10-06T19:42:47.496Z,5.10
2022-10-06T19:44:49.559Z,5.00
2022-10-06T19:46:51.691Z,5.00
2022-10-06T19:48:54.843Z,4.50
2022-10-06T19:50:56.759Z,5.23
2022-10-06T19:52:58.730Z,4.90
2022-10-06T19:55:00.881Z,5.67
2022-10-06T19:57:05.745Z,4.97
2022-10-06T19:59:17.194Z,5.20
2022-10-06T20:01:19.378Z,5.23
2022-10-06T20:03:21.564Z,4.73
2022-10-06T20:05:23.515Z,5.80
2022-10-06T20:07:27.870Z,5.10
2022-10-06T20:09:33.735Z,5.03
2022-10-06T20:11:37.841Z,5.00
2022-10-06T20:13:41.220Z,5.27
2022-10-06T20:15:43.160Z,5.33
2022-10-06T20:17:46.987Z,4.50
2022-10-06T20:19:50.974Z,4.60
2022-10-06T20:21:55.995Z,4.33
2022-10-06T20:23:59.523Z,4.67
2022-10-06T20:26:13.522Z,4.93
2022-10-06T20:28:15.526Z,4.87
2022-10-06T20:30:17.521Z,4.70
2022-10-06T20:32:19.490Z,4.30
2022-10-06T20:34:24.623Z,4.50
2022-10-06T20:36:27.834Z,4.80
2022-10-06T20:38:48.491Z,5.40
2022-10-06T20:40:50.409Z,4.40
2022-10-06T20:42:54.821Z,4.10
2022-10-06T20:44:56.769Z,4.10
2022-10-06T20:46:58.760Z,4.90
2022-10-06T20:49:05.025Z,4.87
2022-10-06T20:51:12.260Z,4.50
2022-10-06T20:53:14.838Z,3.87
2022-10-06T20:55:16.801Z,4.57
2022-10-06T20:57:18.772Z,4.40
2022-10-06T20:59:21.817Z,4.47
2022-10-06T21:01:23.975Z,3.53
2022-10-06T21:03:25.969Z,4.47
2022-10-06T21:05:31.038Z,4.53
2022-10-06T21:07:34.356Z,3.50
2022-10-06T21:09:36.318Z,4.57
2022-10-06T21:11:38.508Z,3.40
2022-10-06T21:13:48.376Z,3.47
2022-10-06T21:15:50.525Z,3.40
2022-10-06T21:17:52.579Z,4.40
2022-10-06T21:19:54.550Z,4.20
2022-10-06T21:21:56.512Z,3.80
2022-10-06T21:23:58.452Z,4.20
2022-10-06T21:26:01.242Z,4.20
2022-10-06T21:28:04.758Z,4.33
2022-10-06T21:30:07.154Z,4.40
2022-10-06T21:32:10.251Z,3.83
2022-10-06T21:34:14.471Z,3.67
2022-10-06T21:36:22.457Z,3.40
2022-10-06T21:38:24.585Z,5.23
2022-10-06T21:40:26.605Z,4.17
2022-10-06T21:42:28.679Z,3.73
2022-10-06T21:44:30.662Z,3.63
2022-10-06T21:46:42.873Z,3.60
2022-10-06T21:48:49.335Z,4.00
2022-10-06T21:50:54.465Z,4.63
2022-10-06T21:52:56.435Z,4.33
2022-10-06T21:54:58.459Z,5.53
2022-10-06T21:57:00.625Z,4.27
2022-10-06T21:59:03.841Z,4.07
2022-10-06T22:01:06.888Z,3.90
2022-10-06T22:03:08.933Z,4.30
2022-10-06T22:05:10.919Z,3.80
2022-10-06T22:07:12.838Z,3.63
2022-10-06T22:09:16.776Z,4.50
2022-10-06T22:11:21.949Z,4.30
2022-10-06T22:13:23.906Z,4.10
2022-10-06T22:15:25.909Z,3.77
2022-10-06T22:17:27.824Z,4.30
2022-10-06T22:19:29.789Z,4.43
2022-10-06T22:21:34.789Z,4.60
2022-10-06T22:23:36.785Z,4.50
2022-10-06T22:25:38.784Z,4.03
2022-10-06T22:27:40.911Z,4.80
2022-10-06T22:29:43.005Z,4.23
2022-10-06T22:31:46.626Z,4.10
2022-10-06T22:33:56.306Z,4.20
2022-10-06T22:35:58.437Z,4.13
2022-10-06T22:38:00.384Z,4.20
2022-10-06T22:40:07.376Z,4.33
2022-10-06T22:42:09.664Z,4.63
2022-10-06T22:44:11.596Z,4.00
2022-10-06T22:46:13.905Z,3.83
2022-10-06T22:48:16.018Z,4.77
2022-10-06T22:50:17.960Z,4.47
2022-10-06T22:52:20.382Z,4.57
2022-10-06T22:54:22.612Z,4.77
2022-10-06T22:56:25.221Z,4.60
2022-10-06T22:58:28.084Z,4.40
2022-10-06T23:00:30.141Z,4.80
2022-10-06T23:02:32.178Z,4.30
2022-10-06T23:04:34.140Z,5.03
2022-10-06T23:06:36.133Z,3.90
2022-10-06T23:08:40.551Z,4.50
2022-10-06T23:10:42.446Z,5.07
2022-10-06T23:12:47.273Z,4.83
2022-10-06T23:14:49.386Z,5.03
2022-10-06T23:16:51.510Z,5.17
2022-10-06T23:18:54.985Z,4.77
2022-10-06T23:21:07.677Z,4.70
2022-10-06T23:23:09.685Z,5.23
2022-10-06T23:25:11.801Z,4.80
2022-10-06T23:27:14.409Z,5.33
2022-10-06T23:29:16.663Z,4.80
2022-10-06T23:31:19.201Z,4.63
2022-10-06T23:33:21.235Z,4.70
2022-10-06T23:35:23.275Z,5.17
2022-10-06T23:37:25.251Z,4.90
2022-10-06T23:39:28.069Z,4.70
2022-10-06T23:41:29.984Z,4.50
2022-10-06T23:43:32.355Z,4.40
2022-10-06T23:45:34.360Z,4.97
2022-10-06T23:47:36.423Z,4.63
2022-10-06T23:49:38.332Z,5.20
2022-10-06T23:51:40.295Z,4.80
2022-10-06T23:53:43.060Z,5.23
2022-10-06T23:55:45.027Z,4.30
2022-10-06T23:57:47.259Z,4.63
2022-10-06T23:59:49.293Z,5.17
